Portada
METAR-TAF:

METAR-TAF

Aeroports :

Makkovik, Terranova i Labrador, Canadà

latitud: 55-05N, longitud: 059-11W, altitud: 71 m

Observació

L'informe es va fer fa 4 hores i 33 minuts, a les 20:00 UTC
Vent 12 kt del Oest
Temperatura 1°C
Humitat 51%
Pressió 1024 hPa
Visibilitat: 24.1 km
Escasses núvols a una alçada de 2500 ft
Escasses núvols a una alçada de 24000 ft

METAR: CYFT 232000Z 27012KT 15SM FEW025 FEW240 01/M08 A3023 RMK CU1CI1 CI TR LAST STFD OBS/NEXT240900Z SLP242

Hora: 21:33 (00:33 UTC)


TAF: manca

Observacions i pronòstics meteorològics de més de 4000 aeroports (METAR i TAF).

Les estacions disponibles són els punts grocs i vermells al mapa.

Posi el ratolí al punt desitjat per veure el nom de l'estació.

Feu clic per veure les observacions i els pronòstics meteorològics.

Per canviar el mapa: feu clic els botons verds amb una creu de color negre per apropar; al botó verd amb un guió per allunyar la imatge; o en les fletxes verdes per a mapes adjacents.


METAR-TAF: